createdAt,value
2023-07-25T00:02:31.161Z,19.20
2023-07-25T00:07:33.474Z,19.20
2023-07-25T00:12:39.469Z,19.00
2023-07-25T00:17:41.729Z,19.00
2023-07-25T00:22:43.888Z,19.00
2023-07-25T00:27:46.230Z,19.30
2023-07-25T00:32:48.557Z,19.20
2023-07-25T00:37:51.005Z,19.20
2023-07-25T00:42:57.239Z,19.30
2023-07-25T00:47:59.480Z,19.30
2023-07-25T00:53:03.692Z,19.30
2023-07-25T00:58:05.877Z,19.40
2023-07-25T01:03:08.380Z,19.80
2023-07-25T01:08:10.916Z,20.20
2023-07-25T01:13:13.135Z,20.40
2023-07-25T01:18:16.118Z,20.50
2023-07-25T01:23:21.087Z,20.70
2023-07-25T01:28:25.272Z,20.80
2023-07-25T01:33:27.612Z,21.10
2023-07-25T01:38:29.802Z,21.60
2023-07-25T01:43:32.141Z,21.60
2023-07-25T01:48:34.243Z,21.20
2023-07-25T01:53:36.444Z,20.30
2023-07-25T01:58:38.752Z,20.40
2023-07-25T02:03:40.921Z,20.10
2023-07-25T02:08:43.114Z,19.70
2023-07-25T02:13:45.261Z,20.10
2023-07-25T02:18:47.403Z,19.50
2023-07-25T02:23:49.763Z,20.40
2023-07-25T02:28:52.233Z,21.10
2023-07-25T02:33:55.611Z,20.70
2023-07-25T02:38:57.806Z,21.20
2023-07-25T02:44:01.053Z,21.30
2023-07-25T02:49:03.300Z,21.20
2023-07-25T02:54:05.792Z,20.10
2023-07-25T02:59:08.016Z,20.50
2023-07-25T03:04:10.250Z,21.40
2023-07-25T03:09:12.571Z,21.80
2023-07-25T03:14:14.812Z,21.60
2023-07-25T03:19:17.129Z,20.40
2023-07-25T03:24:19.305Z,21.40
2023-07-25T03:29:21.953Z,21.90
2023-07-25T03:34:24.210Z,21.50
2023-07-25T03:39:26.379Z,20.20
2023-07-25T03:44:28.525Z,20.00
2023-07-25T03:49:30.729Z,20.50
2023-07-25T03:54:32.956Z,20.60
2023-07-25T03:59:35.176Z,20.40
2023-07-25T04:04:37.434Z,19.40
2023-07-25T04:09:39.645Z,20.00
2023-07-25T04:14:42.360Z,20.30
2023-07-25T04:19:44.583Z,20.30
2023-07-25T04:24:46.788Z,20.70
2023-07-25T04:29:48.960Z,19.90
2023-07-25T04:34:51.409Z,19.30
2023-07-25T04:39:53.906Z,18.80
2023-07-25T04:44:58.720Z,19.50
2023-07-25T04:50:01.207Z,19.80
2023-07-25T04:55:03.436Z,19.40
2023-07-25T05:00:07.636Z,19.40
2023-07-25T05:05:10.184Z,19.50
2023-07-25T05:10:12.432Z,19.30
2023-07-25T05:15:14.685Z,19.20
2023-07-25T05:20:17.057Z,19.40
2023-07-25T05:25:19.281Z,19.80
2023-07-25T05:30:21.666Z,20.30
2023-07-25T05:35:24.096Z,21.00
2023-07-25T05:40:26.242Z,20.40
2023-07-25T05:45:28.404Z,20.50
2023-07-25T05:50:30.586Z,21.00
2023-07-25T05:55:32.726Z,19.80
2023-07-25T06:00:34.853Z,18.50
2023-07-25T06:05:37.008Z,18.30
2023-07-25T06:10:40.841Z,18.90
2023-07-25T06:15:43.043Z,18.50
2023-07-25T06:20:48.298Z,19.60
2023-07-25T06:25:50.490Z,20.00
2023-07-25T06:30:53.218Z,20.40
2023-07-25T06:35:55.734Z,20.30
2023-07-25T06:40:58.386Z,19.60
2023-07-25T06:46:01.487Z,20.00
2023-07-25T06:51:04.133Z,20.70
2023-07-25T06:56:06.302Z,21.00
2023-07-25T07:01:08.487Z,21.10
2023-07-25T07:06:10.685Z,20.60
2023-07-25T07:11:12.821Z,19.50
2023-07-25T07:16:15.793Z,19.40
2023-07-25T07:21:17.943Z,19.20
2023-07-25T07:26:20.210Z,19.30
2023-07-25T07:31:24.870Z,19.10
2023-07-25T07:36:27.202Z,19.40
2023-07-25T07:41:29.566Z,18.60
2023-07-25T07:46:34.233Z,18.80
2023-07-25T07:51:36.443Z,18.50
2023-07-25T07:56:42.040Z,18.90
2023-07-25T08:01:50.070Z,19.10
2023-07-25T08:06:57.053Z,19.50
2023-07-25T08:12:00.024Z,19.30
2023-07-25T08:17:02.305Z,19.30
2023-07-25T08:22:04.904Z,19.40
2023-07-25T08:27:08.686Z,19.30
2023-07-25T08:32:14.603Z,19.30
2023-07-25T08:37:27.217Z,19.40
2023-07-25T08:42:38.820Z,19.50
2023-07-25T08:47:47.262Z,19.80
2023-07-25T08:52:58.175Z,19.80
2023-07-25T08:58:01.651Z,19.90
2023-07-25T09:03:09.774Z,20.10
2023-07-25T09:08:28.309Z,20.40
2023-07-25T09:13:32.338Z,20.40
2023-07-25T09:18:39.366Z,20.00
2023-07-25T09:23:54.992Z,19.70
2023-07-25T09:29:01.499Z,19.60
2023-07-25T09:34:22.240Z,20.70
2023-07-25T09:39:24.725Z,21.30
2023-07-25T09:50:07.150Z,21.40
2023-07-25T09:55:14.472Z,21.40
2023-07-25T10:00:21.382Z,21.80
2023-07-25T10:05:25.417Z,22.30
2023-07-25T10:10:32.690Z,21.50
2023-07-25T10:15:35.745Z,21.80
2023-07-25T10:20:38.685Z,22.70
2023-07-25T10:25:40.913Z,22.40
2023-07-25T10:30:47.305Z,23.30
2023-07-25T10:35:57.712Z,23.60
2023-07-25T10:41:20.326Z,23.20
2023-07-25T10:46:35.759Z,22.10
2023-07-25T10:51:57.507Z,21.90
2023-07-25T10:57:24.226Z,22.20
2023-07-25T11:02:41.633Z,21.40
2023-07-25T11:07:56.300Z,20.40
2023-07-25T11:13:06.948Z,20.70
2023-07-25T11:18:12.133Z,22.00
2023-07-25T11:23:15.070Z,23.40
2023-07-25T11:28:18.060Z,22.90
2023-07-25T11:33:21.817Z,23.50
2023-07-25T11:38:26.265Z,24.50
2023-07-25T11:43:31.771Z,25.10
2023-07-25T11:48:34.304Z,23.80
2023-07-25T11:53:39.555Z,23.60
2023-07-25T11:58:51.260Z,23.30
2023-07-25T12:03:54.137Z,23.50
2023-07-25T12:09:01.934Z,23.50
2023-07-25T12:14:05.648Z,23.70
2023-07-25T12:19:24.587Z,23.90
2023-07-25T12:24:26.943Z,23.90
2023-07-25T12:29:29.287Z,23.90
2023-07-25T12:34:31.573Z,22.70
2023-07-25T12:39:33.728Z,22.50
2023-07-25T12:44:35.938Z,23.00
2023-07-25T12:49:39.473Z,23.40
2023-07-25T12:54:44.096Z,25.00
2023-07-25T12:59:46.273Z,26.00
2023-07-25T13:05:01.218Z,26.20
2023-07-25T13:10:03.660Z,26.00
2023-07-25T13:15:07.354Z,25.50
2023-07-25T13:20:10.252Z,25.30
2023-07-25T13:25:22.086Z,25.20
2023-07-25T13:30:25.993Z,24.80
2023-07-25T13:35:28.254Z,24.70
2023-07-25T13:40:30.627Z,24.50
2023-07-25T13:45:46.037Z,24.60
2023-07-25T13:50:55.335Z,24.50
2023-07-25T13:56:02.084Z,24.50
2023-07-25T14:01:09.224Z,24.40
2023-07-25T14:06:13.549Z,24.40
2023-07-25T14:11:22.027Z,24.40
2023-07-25T14:16:24.599Z,24.30
2023-07-25T14:21:37.043Z,24.20
2023-07-25T14:26:39.458Z,24.20
2023-07-25T14:31:52.134Z,23.90
2023-07-25T14:36:56.851Z,24.00
2023-07-25T14:42:02.094Z,24.20
2023-07-25T14:47:07.013Z,23.70
2023-07-25T14:52:11.912Z,23.90
2023-07-25T14:57:21.927Z,24.50
2023-07-25T15:02:27.397Z,24.80
2023-07-25T15:07:33.010Z,24.70
2023-07-25T15:12:35.519Z,23.90
2023-07-25T15:17:37.972Z,24.30
2023-07-25T15:22:42.731Z,24.40
2023-07-25T15:27:49.394Z,24.30
2023-07-25T15:32:54.090Z,24.30
2023-07-25T15:37:58.846Z,24.30
2023-07-25T15:43:09.643Z,24.10
2023-07-25T15:48:24.578Z,23.20
2023-07-25T15:53:29.170Z,22.90
2023-07-25T15:58:34.014Z,20.80
2023-07-25T16:03:44.848Z,20.50
2023-07-25T16:08:50.199Z,20.80
2023-07-25T16:13:56.128Z,20.40
2023-07-25T16:18:58.339Z,20.10
2023-07-25T16:24:00.578Z,19.80
2023-07-25T16:29:02.819Z,19.80
2023-07-25T16:39:44.750Z,20.40
2023-07-25T16:45:20.365Z,20.00
2023-07-25T16:50:25.729Z,19.50
2023-07-25T16:55:31.267Z,19.80
2023-07-25T17:00:58.768Z,20.40
2023-07-25T17:06:06.780Z,21.10
2023-07-25T17:11:12.815Z,22.20
2023-07-25T17:16:20.789Z,22.70
2023-07-25T17:21:34.114Z,22.90
2023-07-25T17:26:42.026Z,23.00
2023-07-25T17:31:46.571Z,23.10
2023-07-25T17:36:48.730Z,23.20
2023-07-25T17:41:51.032Z,23.30
2023-07-25T17:46:53.384Z,23.20
2023-07-25T17:51:55.845Z,23.20
2023-07-25T17:57:03.298Z,23.20
2023-07-25T18:02:07.202Z,23.30
2023-07-25T18:07:09.424Z,23.40
2023-07-25T18:12:16.634Z,23.40
2023-07-25T18:17:18.861Z,22.90
2023-07-25T18:22:22.455Z,23.20
2023-07-25T18:27:40.138Z,23.10
2023-07-25T18:32:43.449Z,23.20
2023-07-25T18:37:53.430Z,23.00
2023-07-25T18:42:56.062Z,23.10
2023-07-25T18:48:00.729Z,22.90
2023-07-25T18:53:02.922Z,21.50
2023-07-25T18:58:07.501Z,21.50
2023-07-25T19:03:09.769Z,21.10
2023-07-25T19:08:11.955Z,21.80
2023-07-25T19:13:14.108Z,20.70
2023-07-25T19:18:16.862Z,20.00
2023-07-25T19:23:26.462Z,20.50
2023-07-25T19:28:30.364Z,21.10
2023-07-25T19:33:34.348Z,20.80
2023-07-25T19:38:40.731Z,20.40
2023-07-25T19:43:48.846Z,19.60
2023-07-25T19:48:53.276Z,18.50
2023-07-25T19:53:56.062Z,19.10
2023-07-25T19:59:06.298Z,19.40
2023-07-25T20:04:11.667Z,19.40
2023-07-25T20:09:14.224Z,18.50
2023-07-25T20:14:18.685Z,18.00
2023-07-25T20:19:27.382Z,17.60
2023-07-25T20:24:35.654Z,18.80
2023-07-25T20:29:37.870Z,18.50
2023-07-25T20:34:46.320Z,17.90
2023-07-25T20:39:48.576Z,18.60
2023-07-25T20:44:53.254Z,18.40
2023-07-25T20:50:00.161Z,18.20
2023-07-25T20:55:05.050Z,18.20
2023-07-25T21:00:11.014Z,17.80
2023-07-25T21:05:13.450Z,17.30
2023-07-25T21:10:15.646Z,17.90
2023-07-25T21:15:23.150Z,16.80
2023-07-25T21:20:29.112Z,16.60
2023-07-25T21:31:12.359Z,16.70
2023-07-25T21:36:15.067Z,16.60
2023-07-25T21:41:17.388Z,16.60
2023-07-25T21:46:19.707Z,17.40
2023-07-25T21:51:21.896Z,17.20
2023-07-25T21:56:24.258Z,17.50
2023-07-25T22:01:26.722Z,16.90
2023-07-25T22:06:30.012Z,16.90
2023-07-25T22:11:32.655Z,17.10
2023-07-25T22:16:35.333Z,17.80
2023-07-25T22:21:37.945Z,18.90
2023-07-25T22:26:40.104Z,18.30
2023-07-25T22:31:42.299Z,18.30
2023-07-25T22:36:44.549Z,17.80
2023-07-25T22:41:46.712Z,17.40
2023-07-25T22:46:48.870Z,17.10
2023-07-25T22:51:51.070Z,18.10
2023-07-25T22:56:53.479Z,18.30
2023-07-25T23:01:56.048Z,18.00
2023-07-25T23:06:58.340Z,17.00
2023-07-25T23:12:00.699Z,16.90
2023-07-25T23:17:02.969Z,16.40
2023-07-25T23:22:05.237Z,16.20
2023-07-25T23:27:08.268Z,15.80
2023-07-25T23:32:12.030Z,15.80
2023-07-25T23:37:14.482Z,15.90
2023-07-25T23:42:16.798Z,16.30
2023-07-25T23:47:18.983Z,16.20
2023-07-25T23:52:21.151Z,16.60
2023-07-25T23:57:23.447Z,16.50
